Time;durP1;ratioP1;P1;durP2;ratioP2;P2;SDS_P1;SDS_P2;PMS_P1;PMS_P2;Temp;Humidity;BMP_temperature;BMP_pressure;BME280_temperature;BME280_humidity;BME280_pressure;Samples;Min_cycle;Max_cycle;Signal;HPM_P1;HPM_P2
2021/10/28 00:14:07;;;;;;;86.90;28.88;;;;;;;4.29;100.00;96040.19;5034812;28;20096;-77
2021/10/28 00:16:36;;;;;;;112.55;27.98;;;;;;;4.21;100.00;96038.66;5044114;28;20054;-77
2021/10/28 00:19:04;;;;;;;97.15;27.50;;;;;;;4.07;100.00;96032.78;5045621;28;20100;-77
2021/10/28 00:21:36;;;;;;;136.43;29.52;;;;;;;4.11;100.00;96033.16;5040341;28;20045;-78
2021/10/28 00:24:05;;;;;;;193.85;33.53;;;;;;;3.97;100.00;96025.44;5025829;28;20050;-78
2021/10/28 00:26:36;;;;;;;183.68;31.35;;;;;;;3.99;100.00;96031.25;5043740;28;20045;-77
2021/10/28 00:29:04;;;;;;;141.15;30.63;;;;;;;3.98;100.00;96029.66;5040525;28;20073;-77
2021/10/28 00:31:32;;;;;;;137.93;30.42;;;;;;;4.04;100.00;96027.19;5038154;28;20037;-77
2021/10/28 00:33:59;;;;;;;190.35;28.80;;;;;;;3.98;100.00;96028.88;5044004;28;20045;-77
2021/10/28 00:36:26;;;;;;;144.93;28.60;;;;;;;4.06;100.00;96030.38;5045303;28;20056;-78
2021/10/28 00:38:52;;;;;;;142.20;27.77;;;;;;;4.02;100.00;96034.44;5046001;28;20057;-77
2021/10/28 00:41:19;;;;;;;179.77;28.88;;;;;;;3.87;100.00;96022.53;5041166;28;20048;-77
2021/10/28 00:43:51;;;;;;;163.30;30.05;;;;;;;3.88;100.00;96029.34;5033684;28;20104;-78
2021/10/28 00:46:18;;;;;;;186.00;30.73;;;;;;;3.88;100.00;96029.34;5042758;28;20080;-78
2021/10/28 00:48:45;;;;;;;144.95;31.10;;;;;;;3.92;100.00;96021.88;5031367;28;20069;-78
2021/10/28 00:51:11;;;;;;;95.60;30.10;;;;;;;3.89;100.00;96030.91;5043927;28;20049;-78
2021/10/28 00:53:37;;;;;;;116.45;31.10;;;;;;;3.91;100.00;96031.50;5028387;28;20060;-77
2021/10/28 00:56:05;;;;;;;98.32;28.98;;;;;;;3.91;100.00;96023.69;5037947;28;20041;-77
2021/10/28 00:58:32;;;;;;;86.22;26.23;;;;;;;3.87;100.00;96022.53;5044536;28;20045;-77
2021/10/28 01:01:00;;;;;;;110.70;25.17;;;;;;;3.64;100.00;96029.13;5040237;28;20053;-77
2021/10/28 01:03:26;;;;;;;186.27;29.95;;;;;;;3.67;100.00;96027.13;5029828;28;20042;-77
2021/10/28 01:05:52;;;;;;;162.20;27.88;;;;;;;3.49;100.00;96026.03;5036831;28;20076;-77
2021/10/28 01:08:18;;;;;;;136.75;27.95;;;;;;;3.66;100.00;96030.72;5045158;28;20046;-77
2021/10/28 01:10:49;;;;;;;147.93;28.48;;;;;;;3.61;100.00;96034.75;5044631;28;20065;-77
2021/10/28 01:13:15;;;;;;;250.63;27.92;;;;;;;3.37;100.00;96030.31;5043546;28;20421;-77
2021/10/28 01:15:41;;;;;;;125.30;24.83;;;;;;;3.33;100.00;96023.94;5043679;28;20041;-78
2021/10/28 01:18:12;;;;;;;115.72;24.77;;;;;;;3.34;100.00;96020.34;5033328;28;20075;-75
2021/10/28 01:20:40;;;;;;;193.65;29.35;;;;;;;3.43;100.00;96032.09;5027707;28;20041;-75
2021/10/28 01:23:07;;;;;;;246.10;28.67;;;;;;;3.39;100.00;96026.50;5012914;28;20049;-76
2021/10/28 01:25:34;;;;;;;151.00;26.80;;;;;;;3.38;100.00;96024.13;5015790;28;20041;-77
2021/10/28 01:28:00;;;;;;;193.73;27.13;;;;;;;3.32;100.00;96019.75;5042185;28;20108;-78
2021/10/28 01:30:25;;;;;;;229.73;28.30;;;;;;;3.29;100.00;96011.38;5042261;28;20045;-77
2021/10/28 01:32:51;;;;;;;147.10;28.67;;;;;;;3.26;100.00;96010.97;5035268;28;20034;-77
2021/10/28 01:35:17;;;;;;;328.10;32.55;;;;;;;3.16;100.00;96011.47;5033089;28;20071;-77
2021/10/28 01:37:44;;;;;;;156.75;30.30;;;;;;;3.22;100.00;96020.19;5043411;28;20046;-77
2021/10/28 01:40:10;;;;;;;71.93;26.42;;;;;;;3.30;100.00;96012.16;5043807;28;20072;-78
2021/10/28 01:42:39;;;;;;;162.15;24.92;;;;;;;3.18;100.00;96008.66;5040659;28;20041;-77
2021/10/28 01:45:06;;;;;;;54.50;20.58;;;;;;;3.50;100.00;96012.00;5042405;28;20052;-78
2021/10/28 01:47:32;;;;;;;43.00;18.67;;;;;;;3.57;100.00;96007.56;5042790;28;20045;-77
2021/10/28 01:49:58;;;;;;;95.20;17.98;;;;;;;3.61;100.00;96008.72;5044009;28;20046;-78
2021/10/28 01:52:24;;;;;;;61.35;16.73;;;;;;;3.67;100.00;96006.28;5042879;28;20042;-77
2021/10/28 01:54:50;;;;;;;61.20;17.38;;;;;;;3.69;100.00;96014.69;5042113;28;20045;-77
2021/10/28 01:57:21;;;;;;;83.82;18.02;;;;;;;3.73;100.00;96010.63;5031517;28;20669;-78
2021/10/28 01:59:47;;;;;;;89.43;17.50;;;;;;;3.70;100.00;96011.84;5028031;28;20474;-77
2021/10/28 02:02:13;;;;;;;45.72;15.90;;;;;;;3.67;100.00;96006.28;5043091;28;20049;-78
2021/10/28 02:04:38;;;;;;;92.07;16.10;;;;;;;3.59;100.00;96013.34;5038977;28;20049;-77
2021/10/28 02:07:04;;;;;;;69.45;15.80;;;;;;;3.60;100.00;96014.16;5042011;28;20534;-77
2021/10/28 02:09:31;;;;;;;84.72;17.55;;;;;;;3.47;100.00;96013.22;5058848;28;20049;-77
2021/10/28 02:11:56;;;;;;;80.00;17.52;;;;;;;3.31;100.00;96023.38;5042515;28;20034;-78
2021/10/28 02:14:22;;;;;;;52.75;17.25;;;;;;;3.39;100.00;96020.50;5042672;28;20056;-78
2021/10/28 02:16:47;;;;;;;132.60;18.35;;;;;;;3.62;100.00;96025.94;5042571;28;20437;-77
2021/10/28 02:19:13;;;;;;;78.85;19.65;;;;;;;3.40;100.00;96015.09;5041875;28;20041;-78
2021/10/28 02:21:39;;;;;;;78.90;18.85;;;;;;;3.44;100.00;96023.28;5037563;28;20089;-77
2021/10/28 02:24:04;;;;;;;84.93;18.55;;;;;;;3.61;100.00;96024.34;5029505;28;20101;-78
2021/10/28 02:26:30;;;;;;;139.82;20.15;;;;;;;3.56;100.00;96026.81;5037241;28;20040;-77
2021/10/28 02:28:56;;;;;;;72.53;18.58;;;;;;;3.69;100.00;96025.09;5042273;28;20061;-77
2021/10/28 02:31:22;;;;;;;101.55;19.42;;;;;;;3.71;100.00;96020.47;5042234;28;20038;-77
2021/10/28 02:33:48;;;;;;;56.30;16.60;;;;;;;3.75;100.00;96029.44;5041996;28;20049;-77
2021/10/28 02:36:15;;;;;;;63.20;17.60;;;;;;;3.76;100.00;96020.63;5042565;28;20061;-77
2021/10/28 02:38:42;;;;;;;32.53;17.00;;;;;;;3.70;100.00;96022.28;5042573;28;20038;-77
2021/10/28 02:41:07;;;;;;;70.68;17.08;;;;;;;3.73;100.00;96031.47;5040782;28;20094;-78
2021/10/28 02:43:33;;;;;;;68.22;16.23;;;;;;;3.58;100.00;96027.38;5040781;28;20101;-77
2021/10/28 02:45:59;;;;;;;66.30;17.58;;;;;;;3.63;100.00;96032.75;5036033;28;20034;-77
2021/10/28 02:48:24;;;;;;;51.00;17.58;;;;;;;3.66;100.00;96035.94;5040832;28;20045;-77
2021/10/28 02:50:49;;;;;;;48.10;17.73;;;;;;;3.67;100.00;96022.69;5042082;28;20048;-77
2021/10/28 02:53:15;;;;;;;78.95;16.35;;;;;;;3.56;100.00;96026.00;5032425;28;20049;-77
2021/10/28 02:55:41;;;;;;;56.88;15.13;;;;;;;3.45;100.00;96025.66;5021182;28;20103;-77
2021/10/28 02:58:06;;;;;;;77.15;17.77;;;;;;;3.26;100.00;96019.59;5041266;28;20098;-77
2021/10/28 03:00:32;;;;;;;42.85;16.83;;;;;;;3.34;100.00;96026.34;5041875;28;20046;-78
2021/10/28 03:02:57;;;;;;;34.70;16.25;;;;;;;3.46;100.00;96022.06;5040851;28;20387;-77
2021/10/28 03:05:23;;;;;;;81.15;16.80;;;;;;;3.49;100.00;96025.25;5033324;28;20053;-76
2021/10/28 03:07:49;;;;;;;101.00;17.20;;;;;;;3.49;100.00;96031.22;5056004;28;20168;-76
2021/10/28 03:10:15;;;;;;;40.35;16.17;;;;;;;3.51;100.00;96026.63;5033335;28;20052;-77
2021/10/28 03:12:42;;;;;;;49.88;16.73;;;;;;;3.41;100.00;96031.50;5041685;28;20092;-77
2021/10/28 03:15:11;;;;;;;48.05;17.58;;;;;;;3.33;100.00;96031.75;5036811;28;20038;-77
2021/10/28 03:25:40;;;;;;;44.30;19.15;;;;;;;3.57;100.00;96020.56;5037394;28;20049;-77
2021/10/28 03:28:16;;;;;;;49.78;17.88;;;;;;;3.66;100.00;96015.09;5040259;28;20045;-77
2021/10/28 03:30:42;;;;;;;70.22;18.13;;;;;;;3.75;100.00;96024.22;5040713;28;20378;-77
2021/10/28 03:33:11;;;;;;;39.63;17.48;;;;;;;3.67;100.00;96021.91;5034052;28;20073;-77
2021/10/28 03:35:37;;;;;;;40.65;17.92;;;;;;;3.80;100.00;96022.56;5025151;28;20111;-77
2021/10/28 03:38:11;;;;;;;49.83;17.58;;;;;;;3.82;100.00;96019.75;5034626;28;20042;-77
2021/10/28 04:07:38;;;;;;;38.42;17.13;;;;;;;3.94;100.00;96038.91;5023734;28;20069;-77
2021/10/28 04:18:39;;;;;;;38.83;17.55;;;;;;;3.98;100.00;96040.06;5030026;28;20041;-77
2021/10/28 04:29:34;;;;;;;39.25;16.73;;;;;;;3.89;100.00;96030.91;5027289;28;20062;-77
2021/10/28 04:31:59;;;;;;;41.70;17.73;;;;;;;3.81;100.00;96033.81;5034798;28;20100;-78
2021/10/28 04:34:25;;;;;;;40.58;18.52;;;;;;;3.80;100.00;96029.59;5040346;28;20917;-78
2021/10/28 04:36:51;;;;;;;57.47;19.48;;;;;;;3.91;100.00;96028.91;5039868;28;20419;-77
2021/10/28 04:39:17;;;;;;;51.47;18.60;;;;;;;3.94;100.00;96028.47;5030557;28;20038;-78
2021/10/28 04:41:43;;;;;;;39.40;17.83;;;;;;;4.11;100.00;96035.75;5039190;28;20049;-77
2021/10/28 04:44:11;;;;;;;60.17;19.25;;;;;;;4.04;100.00;96033.22;5037621;28;20045;-78
2021/10/28 04:46:37;;;;;;;48.40;18.98;;;;;;;4.06;100.00;96025.19;5037616;28;20052;-77
2021/10/28 04:49:03;;;;;;;47.38;18.63;;;;;;;4.22;100.00;96029.81;5032813;28;20054;-77
2021/10/28 04:51:29;;;;;;;37.85;18.20;;;;;;;4.18;100.00;96028.69;5040354;28;20159;-77
2021/10/28 04:53:54;;;;;;;47.92;19.23;;;;;;;3.98;100.00;96024.44;5055105;28;20037;-78
2021/10/28 04:56:20;;;;;;;47.95;17.73;;;;;;;4.08;100.00;96020.53;5040224;28;20053;-78
2021/10/28 04:58:45;;;;;;;45.65;18.58;;;;;;;3.96;100.00;96026.44;5041310;28;20048;-78
2021/10/28 05:01:11;;;;;;;55.78;17.90;;;;;;;4.22;100.00;96027.22;5038636;28;20073;-77
2021/10/28 05:03:36;;;;;;;54.30;18.67;;;;;;;4.30;100.00;96020.94;5042930;28;20053;-76
2021/10/28 05:06:03;;;;;;;41.53;16.30;;;;;;;4.37;100.00;96031.28;5043154;28;20041;-77
2021/10/28 05:08:28;;;;;;;36.42;17.58;;;;;;;4.18;100.00;96027.84;5044220;28;20095;-77
2021/10/28 05:10:54;;;;;;;53.00;17.52;;;;;;;4.22;100.00;96029.81;5020168;28;20045;-76
2021/10/28 05:13:20;;;;;;;41.17;17.02;;;;;;;4.18;100.00;96023.47;5013511;28;20491;-76
2021/10/28 05:15:48;;;;;;;44.65;17.65;;;;;;;4.20;100.00;96026.63;5034400;28;20046;-76
2021/10/28 05:18:15;;;;;;;46.22;16.88;;;;;;;4.28;100.00;96023.75;5027504;28;20440;-76
2021/10/28 05:20:42;;;;;;;47.45;17.15;;;;;;;4.29;100.00;96034.97;5031966;28;20538;-77
2021/10/28 05:23:10;;;;;;;40.60;17.15;;;;;;;4.27;100.00;96032.56;5035634;28;20432;-76
2021/10/28 05:25:36;;;;;;;48.28;18.35;;;;;;;4.03;100.00;96026.41;5035871;28;20347;-77
2021/10/28 05:28:02;;;;;;;46.38;19.25;;;;;;;4.15;100.00;96024.69;5036879;28;20498;-77
2021/10/28 05:30:29;;;;;;;46.38;19.45;;;;;;;4.31;100.00;96028.53;5029964;28;20042;-77
2021/10/28 05:32:55;;;;;;;43.20;18.27;;;;;;;4.40;100.00;96025.66;5024663;28;20057;-76
2021/10/28 05:35:21;;;;;;;48.15;18.40;;;;;;;4.38;100.00;96023.22;5031184;28;20111;-77
2021/10/28 05:37:47;;;;;;;41.58;18.50;;;;;;;4.42;100.00;96028.81;5029673;28;20127;-76
2021/10/28 05:40:13;;;;;;;43.50;17.70;;;;;;;4.38;100.00;96022.44;5026220;28;20468;-76
2021/10/28 05:42:43;;;;;;;43.80;18.13;;;;;;;4.42;100.00;96026.22;5035250;28;20460;-77
2021/10/28 05:45:10;;;;;;;37.85;16.23;;;;;;;4.39;100.00;96024.03;5035933;28;20395;-77
2021/10/28 05:47:37;;;;;;;44.15;17.98;;;;;;;4.34;100.00;96033.31;5035688;28;20065;-77
2021/10/28 05:50:03;;;;;;;45.80;18.30;;;;;;;4.41;100.00;96027.22;5033404;28;20637;-77
2021/10/28 05:52:29;;;;;;;37.92;17.63;;;;;;;4.39;100.00;96031.88;5035184;28;20048;-77
2021/10/28 05:54:54;;;;;;;45.45;18.15;;;;;;;4.44;100.00;96026.78;5026481;28;20042;-77
2021/10/28 05:57:20;;;;;;;56.47;18.00;;;;;;;4.36;100.00;96040.13;5030689;28;20049;-77
2021/10/28 05:59:45;;;;;;;49.70;18.10;;;;;;;4.41;100.00;96032.44;5036849;28;20041;-76
2021/10/28 06:02:11;;;;;;;51.80;17.40;;;;;;;4.45;100.00;96033.59;5035171;28;20061;-77
2021/10/28 06:04:37;;;;;;;42.65;17.45;;;;;;;4.46;100.00;96029.97;5035629;28;20080;-76
2021/10/28 06:07:02;;;;;;;42.83;17.58;;;;;;;4.50;100.00;96026.72;5034023;28;20684;-77
2021/10/28 06:09:28;;;;;;;40.17;17.63;;;;;;;4.41;100.00;96033.25;5035243;28;20438;-77
2021/10/28 06:11:56;;;;;;;39.63;17.08;;;;;;;4.45;100.00;96028.38;5021818;28;20046;-76
2021/10/28 06:14:24;;;;;;;44.38;17.73;;;;;;;4.51;100.00;96037.94;5023766;28;20045;-77
2021/10/28 06:16:57;;;;;;;40.67;17.90;;;;;;;4.50;100.00;96031.16;5015713;28;20041;-76
2021/10/28 06:19:23;;;;;;;40.22;16.67;;;;;;;4.57;100.00;96042.28;5035650;28;20124;-77
2021/10/28 06:21:49;;;;;;;40.45;17.77;;;;;;;4.55;100.00;96038.31;5035183;28;20077;-77
2021/10/28 06:24:15;;;;;;;40.45;18.65;;;;;;;4.32;100.00;96034.53;5028397;28;20068;-76
2021/10/28 06:26:41;;;;;;;40.88;18.70;;;;;;;4.19;100.00;96035.47;5024735;28;20037;-77
2021/10/28 06:29:06;;;;;;;40.30;17.17;;;;;;;4.51;100.00;96043.13;5030419;28;20463;-76
2021/10/28 06:31:32;;;;;;;40.20;16.17;;;;;;;4.58;100.00;96043.88;5025555;28;20052;-75
2021/10/28 06:34:06;;;;;;;31.45;15.18;;;;;;;4.40;100.00;96046.50;5027540;28;20037;-75
2021/10/28 06:36:35;;;;;;;32.25;13.48;;;;;;;4.32;100.00;96039.75;5018082;28;20513;-77
2021/10/28 06:39:01;;;;;;;30.05;15.00;;;;;;;4.32;100.00;96037.13;5029588;28;20041;-76
2021/10/28 06:41:27;;;;;;;32.83;15.02;;;;;;;4.29;100.00;96046.16;5027650;28;20049;-75
2021/10/28 06:43:52;;;;;;;30.30;15.50;;;;;;;4.28;100.00;96044.59;5026473;28;20147;-76
2021/10/28 06:46:18;;;;;;;28.45;15.10;;;;;;;4.36;100.00;96045.34;5019053;28;20045;-76
2021/10/28 06:48:44;;;;;;;34.45;15.77;;;;;;;4.21;100.00;96048.25;5029102;28;20061;-75
2021/10/28 06:51:11;;;;;;;29.67;13.93;;;;;;;4.21;100.00;96049.09;5027862;28;20563;-76
2021/10/28 06:53:45;;;;;;;35.15;16.98;;;;;;;3.99;100.00;96046.88;5025907;28;20052;-77
2021/10/28 07:04:23;;;;;;;29.58;13.65;;;;;;;4.51;100.00;96050.97;5015830;28;20541;-76
2021/10/28 07:06:49;;;;;;;33.42;14.13;;;;;;;4.42;100.00;96044.47;5017152;28;20037;-75
2021/10/28 07:09:21;;;;;;;37.03;14.57;;;;;;;4.40;100.00;96051.72;5012288;28;20111;-76
2021/10/28 07:11:53;;;;;;;34.78;13.23;;;;;;;4.25;100.00;96045.03;5022521;28;20104;-75
2021/10/28 07:14:19;;;;;;;34.88;13.95;;;;;;;4.26;100.00;96049.22;5019324;28;20061;-76
2021/10/28 07:20:00;;;;;;;32.70;15.43;;;;;;;4.31;100.00;96049.38;5029478;28;20064;-76
2021/10/28 07:24:59;;;;;;;31.60;14.50;;;;;;;4.48;100.00;96048.78;5016572;28;20057;-77
2021/10/28 07:30:11;;;;;;;31.08;15.45;;;;;;;4.40;100.00;96036.06;5017762;28;20061;-75
2021/10/28 08:19:06;;;;;;;39.03;16.58;;;;;;;4.98;100.00;96017.31;4998345;28;20061;-76
2021/10/28 08:21:38;;;;;;;31.50;15.25;;;;;;;5.11;100.00;96012.94;5024357;28;20038;-77
2021/10/28 08:24:18;;;;;;;35.80;16.77;;;;;;;4.99;100.00;96008.47;5019783;28;20045;-77
2021/10/28 08:29:35;;;;;;;38.08;16.65;;;;;;;4.93;100.00;96004.16;5011633;28;20077;-76
2021/10/28 08:32:03;;;;;;;37.53;17.30;;;;;;;5.05;100.00;96000.78;5022194;28;20050;-76
2021/10/28 08:34:36;;;;;;;37.38;16.92;;;;;;;4.99;100.00;95998.03;5029054;28;20045;-76
2021/10/28 08:37:11;;;;;;;32.28;15.45;;;;;;;5.23;100.00;95997.31;5029708;28;20056;-78
2021/10/28 08:39:46;;;;;;;32.92;16.15;;;;;;;5.28;100.00;95990.41;5032296;28;20042;-78
2021/10/28 08:42:15;;;;;;;28.58;14.15;;;;;;;5.36;100.00;95992.72;5031469;28;20050;-77
2021/10/28 08:44:45;;;;;;;30.75;15.25;;;;;;;5.34;100.00;95989.53;5031193;28;20041;-77
2021/10/28 08:47:11;;;;;;;26.13;14.15;;;;;;;5.29;100.00;95991.22;5033418;28;20049;-77
2021/10/28 08:49:56;;;;;;;27.90;14.50;;;;;;;5.53;100.00;95992.03;5030718;28;20098;-78
2021/10/28 09:25:41;;;;;;;22.13;11.60;;;;;;;6.13;99.57;95974.59;5030087;28;20046;-77
2021/10/28 09:28:47;;;;;;;23.35;12.10;;;;;;;6.36;98.29;95964.09;5035373;28;20059;-80
2021/10/28 09:31:19;;;;;;;23.20;12.68;;;;;;;6.57;99.71;95969.75;5008926;28;20585;-77
2021/10/28 09:48:02;;;;;;;23.13;12.50;;;;;;;9.49;83.85;95945.88;5027829;28;20254;-77
2021/10/28 09:50:37;;;;;;;21.58;11.43;;;;;;;9.57;84.12;95951.72;5027458;28;20195;-77
2021/10/28 09:53:33;;;;;;;20.13;11.13;;;;;;;9.76;82.83;95947.66;5013067;28;20046;-77
2021/10/28 09:58:38;;;;;;;24.52;12.32;;;;;;;10.53;79.95;95940.19;5022778;28;20037;-77
2021/10/28 10:01:06;;;;;;;19.35;11.60;;;;;;;10.14;78.81;95947.59;5027604;28;20477;-78
2021/10/28 10:03:36;;;;;;;24.08;11.82;;;;;;;11.53;75.71;95935.59;5024979;28;20043;-77
2021/10/28 10:06:04;;;;;;;20.58;11.05;;;;;;;11.54;73.76;95939.81;5023345;28;20526;-78
2021/10/28 10:08:30;;;;;;;16.77;10.23;;;;;;;11.72;73.86;95938.50;5028767;28;20124;-78
2021/10/28 10:10:57;;;;;;;17.58;10.02;;;;;;;11.65;72.85;95942.44;5031003;28;20120;-78
2021/10/28 10:13:27;;;;;;;17.13;9.85;;;;;;;12.79;69.83;95946.34;5030014;28;20072;-77
2021/10/28 10:16:04;;;;;;;17.42;10.13;;;;;;;12.53;69.75;95935.91;5030141;28;20049;-77
2021/10/28 10:18:36;;;;;;;16.67;9.40;;;;;;;12.90;69.83;95939.97;5011147;28;20491;-78
2021/10/28 12:47:31;;;;;;;14.98;10.35;;;;;;;17.79;47.93;95774.75;5031188;28;20056;-77
2021/10/28 12:50:26;;;;;;;;;;;;;;;15.66;52.54;95773.78;5031286;28;20041;-77
2021/10/28 13:55:52;;;;;;;13.40;7.13;;;;;;;13.18;63.24;95732.31;5029344;28;20076;-77
2021/10/28 13:58:40;;;;;;;13.00;7.25;;;;;;;12.76;65.64;95730.38;5015296;28;20037;-77
2021/10/28 14:38:20;;;;;;;17.05;8.93;;;;;;;11.77;74.68;95729.41;5010019;28;20166;-77
2021/10/28 15:35:45;;;;;;;23.10;12.38;;;;;;;10.43;86.22;95682.31;5015910;28;20060;-77
2021/10/28 15:41:22;;;;;;;25.65;13.15;;;;;;;10.29;87.18;95691.75;5045899;28;20079;-78
2021/10/28 16:21:54;;;;;;;30.42;13.15;;;;;;;8.57;94.93;95680.88;5026474;28;20037;-81
2021/10/28 16:24:26;;;;;;;24.75;12.52;;;;;;;8.54;94.80;95685.84;5029529;28;20134;-80
2021/10/28 16:26:52;;;;;;;24.48;12.93;;;;;;;8.54;94.11;95688.47;5035806;28;20491;-81
2021/10/28 16:29:19;;;;;;;24.95;12.30;;;;;;;8.40;94.43;95680.97;5020018;28;20058;-81
2021/10/28 16:31:45;;;;;;;23.65;13.00;;;;;;;8.23;94.95;95685.56;5011193;28;20550;-85
2021/10/28 16:34:12;;;;;;;24.30;12.13;;;;;;;8.13;94.91;95681.00;5024119;28;20546;-80
2021/10/28 16:36:38;;;;;;;26.15;12.80;;;;;;;7.92;96.27;95680.06;5027808;28;20050;-81
2021/10/28 16:39:09;;;;;;;25.13;12.27;;;;;;;7.94;95.66;95677.97;5025902;28;20072;-82
2021/10/28 16:41:35;;;;;;;24.90;12.20;;;;;;;7.96;95.06;95675.91;5025752;28;20155;-80
2021/10/28 16:44:02;;;;;;;26.17;12.95;;;;;;;7.86;95.75;95681.03;5024520;28;20057;-83
2021/10/28 16:46:28;;;;;;;27.58;13.13;;;;;;;7.67;96.04;95684.00;5031197;28;20052;-80
2021/10/28 16:48:53;;;;;;;25.90;13.57;;;;;;;7.48;97.21;95687.97;5029578;28;20053;-81
2021/10/28 16:51:20;;;;;;;29.75;14.40;;;;;;;7.36;97.70;95677.63;5023355;28;20045;-80
2021/10/28 16:53:45;;;;;;;27.65;14.15;;;;;;;7.19;98.80;95688.94;5027712;28;20053;-80
2021/10/28 16:56:14;;;;;;;28.50;14.30;;;;;;;7.07;100.00;95691.69;5028738;28;20069;-81
2021/10/28 16:58:41;;;;;;;33.45;16.77;;;;;;;7.02;100.00;95689.00;5028118;28;20037;-80
2021/10/28 17:01:08;;;;;;;28.73;14.85;;;;;;;7.09;99.12;95689.59;5029998;28;20494;-79
2021/10/28 17:03:33;;;;;;;30.73;14.18;;;;;;;7.19;98.74;95703.88;5027819;28;20063;-79
2021/10/28 17:05:59;;;;;;;26.15;13.73;;;;;;;7.13;97.69;95704.84;5028585;28;20399;-79
2021/10/28 17:08:25;;;;;;;26.27;14.30;;;;;;;7.02;97.91;95696.84;5018221;28;20049;-80
2021/10/28 17:10:50;;;;;;;31.58;14.90;;;;;;;6.97;98.80;95691.56;5030651;28;20490;-80
2021/10/28 17:13:16;;;;;;;31.45;14.55;;;;;;;6.78;99.56;95698.09;5026387;28;20076;-79
2021/10/28 17:15:42;;;;;;;26.92;14.48;;;;;;;6.86;98.92;95701.06;5028703;28;20065;-79
2021/10/28 17:18:08;;;;;;;30.95;14.90;;;;;;;6.94;98.63;95702.50;5025755;28;20038;-80
2021/10/28 17:20:37;;;;;;;33.47;16.67;;;;;;;6.97;98.08;95712.50;5027122;28;20057;-80
2021/10/28 17:23:04;;;;;;;30.75;15.43;;;;;;;6.85;97.81;95714.41;5027593;28;20042;-79
2021/10/28 17:25:37;;;;;;;30.10;15.20;;;;;;;6.78;98.51;95713.78;5027566;28;20061;-80
2021/10/28 17:28:03;;;;;;;29.45;14.60;;;;;;;6.72;98.05;95711.09;5042059;28;20517;-79
2021/10/28 17:30:29;;;;;;;37.00;15.70;;;;;;;6.72;98.90;95711.09;5028952;28;20061;-80
2021/10/28 17:32:55;;;;;;;30.00;15.70;;;;;;;6.51;98.80;95701.38;5029743;28;20049;-79
2021/10/28 17:35:20;;;;;;;31.92;15.98;;;;;;;6.52;98.79;95705.53;5027621;28;20085;-78
2021/10/28 17:37:46;;;;;;;35.95;16.67;;;;;;;6.61;98.68;95703.31;5044225;28;20570;-80
2021/10/28 17:40:12;;;;;;;28.73;15.75;;;;;;;6.43;97.75;95701.75;5029755;28;20110;-79
2021/10/28 17:42:39;;;;;;;31.70;15.30;;;;;;;6.52;97.84;95705.53;5019382;28;20070;-80
2021/10/28 17:45:07;;;;;;;30.83;15.85;;;;;;;6.30;97.69;95701.03;5025678;28;20061;-79
2021/10/28 17:47:33;;;;;;;30.15;15.50;;;;;;;6.28;98.67;95705.72;5028537;28;20306;-81
2021/10/28 17:49:59;;;;;;;32.47;15.30;;;;;;;6.30;98.37;95703.66;5027123;28;20546;-79
2021/10/28 17:52:25;;;;;;;30.67;15.05;;;;;;;6.23;97.97;95708.22;5028831;28;20064;-79
2021/10/28 17:54:50;;;;;;;30.45;15.48;;;;;;;6.22;97.48;95707.44;5025994;28;20053;-79
2021/10/28 17:57:16;;;;;;;30.52;15.18;;;;;;;6.09;97.18;95712.19;5030041;28;20049;-79
2021/10/28 17:59:42;;;;;;;32.67;16.20;;;;;;;6.02;97.95;95713.13;5029425;28;20427;-83
2021/10/28 18:02:10;;;;;;;34.67;16.67;;;;;;;5.96;98.62;95705.41;5025759;28;20125;-78
2021/10/28 18:04:36;;;;;;;34.22;16.25;;;;;;;5.89;99.29;95713.41;5024297;28;20041;-78
2021/10/28 18:07:02;;;;;;;33.10;16.38;;;;;;;5.72;99.24;95713.34;5027053;28;20395;-79
2021/10/28 18:09:28;;;;;;;34.90;17.08;;;;;;;5.76;98.40;95711.03;5024774;28;20045;-78
2021/10/28 18:11:55;;;;;;;37.38;18.00;;;;;;;5.67;98.83;95705.41;5027098;28;21009;-80
2021/10/28 18:14:24;;;;;;;34.03;17.15;;;;;;;5.75;98.71;95712.88;5024613;28;20046;-79
2021/10/28 18:16:50;;;;;;;31.63;16.67;;;;;;;5.73;98.91;95705.28;5028012;28;20046;-78
2021/10/28 18:19:16;;;;;;;29.95;16.55;;;;;;;5.64;99.20;95706.66;5028238;28;20046;-79
2021/10/28 18:21:45;;;;;;;30.80;16.50;;;;;;;5.55;99.09;95708.06;5028279;28;20061;-79
2021/10/28 18:24:11;;;;;;;38.67;16.73;;;;;;;5.59;98.30;95703.97;5025497;28;20600;-79
2021/10/28 18:26:38;;;;;;;33.22;16.38;;;;;;;5.46;98.65;95699.00;5026749;28;20087;-79
2021/10/28 18:29:05;;;;;;;37.25;17.63;;;;;;;5.38;98.84;95693.13;5029641;28;20072;-79
2021/10/28 18:31:30;;;;;;;36.97;17.70;;;;;;;5.28;98.88;95692.91;5024301;28;20642;-78
2021/10/28 18:33:58;;;;;;;36.45;18.30;;;;;;;5.23;99.65;95700.66;5016663;28;20037;-79
2021/10/28 18:36:26;;;;;;;34.65;17.75;;;;;;;5.35;99.73;95693.59;5026530;28;20037;-80
2021/10/28 18:38:52;;;;;;;37.63;18.27;;;;;;;5.32;99.14;95699.28;5025213;28;20044;-79
2021/10/28 18:41:19;;;;;;;33.60;17.42;;;;;;;5.26;98.86;95700.19;5021028;28;20496;-81
2021/10/28 18:43:46;;;;;;;38.45;17.95;;;;;;;5.23;98.78;95700.66;5021824;28;20034;-81
2021/10/28 18:46:16;;;;;;;36.13;17.15;;;;;;;5.13;98.66;95690.00;5020926;28;20125;-80
2021/10/28 18:48:42;;;;;;;35.10;17.77;;;;;;;5.03;99.44;95694.00;5023801;28;20050;-80
2021/10/28 18:51:08;;;;;;;36.10;17.42;;;;;;;4.80;100.00;95691.44;5026522;28;20049;-80
2021/10/28 18:53:38;;;;;;;34.97;17.27;;;;;;;4.87;99.51;95686.88;5028696;28;20483;-79
2021/10/28 18:56:04;;;;;;;33.10;16.38;;;;;;;4.92;98.75;95688.81;5037912;28;20042;-80
2021/10/28 18:58:30;;;;;;;35.78;17.10;;;;;;;4.83;98.88;95685.75;5019388;28;20045;-80
2021/10/28 19:00:56;;;;;;;39.13;18.13;;;;;;;4.74;99.90;95687.09;5028910;28;20493;-80
2021/10/28 19:03:22;;;;;;;36.00;17.77;;;;;;;4.74;99.42;95681.88;5023089;28;20045;-79
2021/10/28 19:05:52;;;;;;;33.45;16.90;;;;;;;4.65;99.08;95684.81;5027147;28;20099;-79
2021/10/28 19:08:19;;;;;;;34.83;17.02;;;;;;;4.63;99.68;95681.66;5018387;28;20060;-79
2021/10/28 19:10:47;;;;;;;34.55;17.25;;;;;;;4.72;99.27;95689.16;5015622;28;20049;-77
2021/10/28 19:13:12;;;;;;;33.25;18.15;;;;;;;4.81;98.14;95687.78;5027428;28;20053;-78
2021/10/28 19:15:38;;;;;;;34.13;16.98;;;;;;;4.68;98.31;95679.19;5027726;28;20045;-78
2021/10/28 19:18:06;;;;;;;33.95;16.98;;;;;;;4.52;98.21;95685.06;5028551;28;20045;-78
2021/10/28 19:20:33;;;;;;;34.75;16.52;;;;;;;4.45;98.71;95684.38;5029363;28;20119;-78
2021/10/28 19:22:59;;;;;;;33.35;17.30;;;;;;;4.41;99.68;95678.03;5027270;28;20540;-79
2021/10/28 19:25:24;;;;;;;37.53;18.15;;;;;;;4.33;99.86;95672.13;5011459;28;20054;-79
2021/10/28 19:27:57;;;;;;;38.63;16.50;;;;;;;4.28;99.48;95674.63;5023625;28;20042;-78
2021/10/28 19:30:35;;;;;;;38.40;17.77;;;;;;;4.16;100.00;95676.41;5014176;28;20049;-78
2021/10/28 19:33:12;;;;;;;37.40;17.58;;;;;;;4.19;99.40;95675.97;5010354;28;20029;-79
2021/10/28 19:35:42;;;;;;;34.05;16.77;;;;;;;4.22;98.55;95674.72;5025830;28;20048;-79
2021/10/28 19:38:17;;;;;;;44.67;19.02;;;;;;;4.16;98.97;95671.22;5014885;28;20128;-78
2021/10/28 19:46:14;;;;;;;58.55;24.02;;;;;;;3.90;98.55;95683.59;4929217;29;20510;-80
2021/10/28 19:48:40;;;;;;;56.75;24.63;;;;;;;3.82;99.38;95676.09;4942282;28;20047;-80
2021/10/28 19:51:08;;;;;;;44.63;21.77;;;;;;;3.80;99.30;95683.34;4985404;28;20573;-80
2021/10/28 19:53:34;;;;;;;46.72;20.75;;;;;;;3.72;99.45;95670.66;5026789;28;20049;-80
2021/10/28 19:56:11;;;;;;;48.63;19.65;;;;;;;3.77;98.64;95678.59;5027146;28;20498;-79
2021/10/28 19:58:43;;;;;;;70.07;27.02;;;;;;;3.92;100.00;95665.97;5030988;28;20049;-78
2021/10/28 20:20:14;;;;;;;35.15;17.40;;;;;;;3.31;99.13;95669.59;5021221;28;20128;-78
2021/10/28 20:22:42;;;;;;;34.40;16.45;;;;;;;3.38;99.04;95665.09;5024324;28;20060;-79
2021/10/28 20:25:12;;;;;;;39.42;16.77;;;;;;;3.37;99.32;95668.72;5014205;28;20044;-80
2021/10/28 20:27:39;;;;;;;37.08;17.40;;;;;;;3.46;99.90;95667.38;5027418;28;20050;-78
2021/10/28 20:30:06;;;;;;;38.10;17.65;;;;;;;3.34;99.46;95667.34;5031603;28;20391;-80